Time;durP1;ratioP1;P1;durP2;ratioP2;P2;SDS_P1;SDS_P2;PMS_P1;PMS_P2;Temp;Humidity;BMP_temperature;BMP_pressure;BME280_temperature;BME280_humidity;BME280_pressure;Samples;Min_cycle;Max_cycle;Signal;HPM_P1;HPM_P2
2021/08/16 00:00:38;;;;;;;4.57;3.53;;;;;;;22.22;nan;99923.22;5029431;28;20029;-76
2021/08/16 00:03:03;;;;;;;7.07;3.78;;;;;;;22.21;nan;99916.16;5028486;28;20049;-77
2021/08/16 00:05:29;;;;;;;7.18;4.45;;;;;;;22.17;nan;99906.13;5029028;28;20102;-76
2021/08/16 00:07:54;;;;;;;7.88;4.63;;;;;;;22.27;nan;99909.81;5027814;28;20042;-76
2021/08/16 00:10:19;;;;;;;8.40;4.18;;;;;;;22.30;nan;99913.09;5014395;28;20098;-76
2021/08/16 00:12:45;;;;;;;6.68;4.68;;;;;;;22.36;nan;99901.34;5005989;28;20041;-76
2021/08/16 00:15:11;;;;;;;8.15;4.28;;;;;;;22.30;nan;99902.31;5027921;28;20026;-76
2021/08/16 00:17:36;;;;;;;6.80;3.95;;;;;;;22.31;nan;99898.56;5030597;28;20417;-76
2021/08/16 00:20:02;;;;;;;7.30;4.15;;;;;;;22.31;nan;99893.16;5008386;28;20401;-76
2021/08/16 00:22:27;;;;;;;5.50;4.18;;;;;;;22.33;nan;99894.56;5020535;28;20040;-76
2021/08/16 00:24:53;;;;;;;6.53;4.30;;;;;;;22.31;nan;99890.47;5025846;28;20038;-76
2021/08/16 00:27:18;;;;;;;6.60;4.28;;;;;;;22.31;nan;99877.00;5013399;28;20168;-77
2021/08/16 00:29:44;;;;;;;6.72;4.47;;;;;;;22.33;nan;99881.09;5014942;28;20040;-76
2021/08/16 00:32:09;;;;;;;6.85;4.20;;;;;;;22.35;nan;99881.66;5026318;28;20127;-77
2021/08/16 00:34:34;;;;;;;7.50;4.88;;;;;;;;;;5024072;28;20397;-76
2021/08/16 00:36:59;;;;;;;5.53;3.57;;;;;;;22.29;nan;99879.97;5027282;28;20049;-76
2021/08/16 00:39:25;;;;;;;5.25;4.05;;;;;;;22.28;nan;99870.22;5030804;28;20292;-76
2021/08/16 00:41:50;;;;;;;7.55;4.07;;;;;;;22.23;nan;99875.53;5011785;28;20071;-76
2021/08/16 00:44:16;;;;;;;6.53;4.25;;;;;;;22.22;nan;99869.34;5027999;28;20367;-76
2021/08/16 00:46:43;;;;;;;7.47;4.38;;;;;;;22.22;nan;99882.81;5027862;28;20398;-77
2021/08/16 00:49:08;;;;;;;5.97;4.32;;;;;;;22.23;nan;99878.22;5023129;28;20030;-76
2021/08/16 00:51:36;;;;;;;5.72;4.10;;;;;;;22.19;nan;99880.59;5001441;28;20105;-76
2021/08/16 00:54:06;;;;;;;6.82;4.57;;;;;;;22.20;nan;99876.00;5024635;28;20099;-76
2021/08/16 00:56:31;;;;;;;8.05;4.70;;;;;;;22.23;nan;99880.94;5018498;28;20104;-76
2021/08/16 00:59:08;;;;;;;6.95;4.75;;;;;;;22.18;nan;99878.13;5019108;28;20502;-76
2021/08/16 01:01:34;;;;;;;7.18;4.88;;;;;;;22.12;nan;99869.16;5023034;28;20525;-76
2021/08/16 01:03:59;;;;;;;6.83;5.00;;;;;;;22.19;nan;99874.34;5026394;28;20029;-76
2021/08/16 01:06:25;;;;;;;7.40;4.57;;;;;;;22.23;nan;99865.56;5030172;28;20268;-76
2021/08/16 01:08:50;;;;;;;7.68;5.03;;;;;;;22.17;nan;99869.22;5030206;28;20406;-77
2021/08/16 01:11:16;;;;;;;6.32;5.05;;;;;;;22.18;nan;99862.78;5022463;28;20038;-76
2021/08/16 01:13:43;;;;;;;7.07;4.57;;;;;;;22.15;nan;99862.47;5022801;28;20037;-76
2021/08/16 01:16:08;;;;;;;8.20;4.60;;;;;;;22.19;nan;99859.03;5026076;28;20060;-76
2021/08/16 01:18:34;;;;;;;7.20;5.10;;;;;;;22.14;nan;99861.63;5024282;28;20038;-76
2021/08/16 01:21:06;;;;;;;6.43;5.05;;;;;;;22.16;nan;99853.31;5027801;28;20084;-76
2021/08/16 01:23:31;;;;;;;6.82;4.60;;;;;;;22.13;nan;99861.88;5024642;28;20036;-76
2021/08/16 01:25:57;;;;;;;5.97;4.78;;;;;;;22.13;nan;99865.38;5027435;28;20124;-76
2021/08/16 01:28:23;;;;;;;7.18;5.13;;;;;;;22.18;nan;99860.09;5019640;28;20033;-76
2021/08/16 01:30:57;;;;;;;6.43;4.88;;;;;;;22.16;nan;99867.59;5028830;28;20398;-76
2021/08/16 01:33:23;;;;;;;8.15;5.47;;;;;;;22.20;nan;99866.06;5027593;28;20038;-76
2021/08/16 01:35:49;;;;;;;6.22;4.80;;;;;;;22.18;nan;99873.56;5021131;28;20096;-76
2021/08/16 01:38:17;;;;;;;11.23;5.65;;;;;;;22.19;nan;99879.75;5020499;28;20037;-76
2021/08/16 01:40:42;;;;;;;8.13;5.32;;;;;;;22.16;nan;99888.31;5025026;28;20494;-76
2021/08/16 01:43:08;;;;;;;7.03;5.15;;;;;;;22.14;nan;99890.44;5026826;28;20096;-76
2021/08/16 01:45:33;;;;;;;9.52;4.82;;;;;;;22.15;nan;99903.66;5020536;28;20087;-76
2021/08/16 01:47:58;;;;;;;8.45;4.90;;;;;;;22.18;nan;99905.88;5028975;28;20035;-76
2021/08/16 01:50:24;;;;;;;6.47;4.50;;;;;;;22.10;nan;99908.16;5026361;28;20034;-76
2021/08/16 01:52:49;;;;;;;7.30;4.57;;;;;;;22.13;nan;99913.06;5022351;28;20530;-76
2021/08/16 01:55:15;;;;;;;6.95;5.05;;;;;;;22.17;nan;99911.50;5026711;28;20048;-76
2021/08/16 01:57:41;;;;;;;6.70;4.50;;;;;;;22.03;nan;99924.47;5022815;28;20040;-76
2021/08/16 02:00:07;;;;;;;6.82;4.95;;;;;;;22.13;nan;99921.94;4999807;28;20034;-76
2021/08/16 02:02:32;;;;;;;6.53;4.78;;;;;;;22.19;nan;99923.69;5018923;28;20030;-76
2021/08/16 02:04:57;;;;;;;8.88;4.93;;;;;;;22.14;nan;99931.63;5022438;28;20175;-76
2021/08/16 02:07:23;;;;;;;5.18;4.10;;;;;;;22.15;nan;99940.56;5021171;28;20566;-75
2021/08/16 02:09:48;;;;;;;6.43;4.68;;;;;;;22.08;nan;99940.69;5029740;28;20042;-76
2021/08/16 02:12:13;;;;;;;5.78;4.38;;;;;;;22.07;nan;99949.81;5020261;28;20138;-76
2021/08/16 02:14:39;;;;;;;7.15;4.60;;;;;;;22.05;nan;99944.69;5015068;28;20033;-76
2021/08/16 02:17:04;;;;;;;5.75;4.72;;;;;;;22.03;nan;99946.00;5010514;28;20037;-76
2021/08/16 02:19:30;;;;;;;5.50;4.47;;;;;;;21.98;nan;99948.59;5015216;28;20517;-75
2021/08/16 02:21:56;;;;;;;5.53;3.97;;;;;;;21.94;nan;99956.31;5013986;28;20026;-76
2021/08/16 02:24:21;;;;;;;7.32;4.43;;;;;;;21.92;nan;99950.38;5017042;28;20040;-76
2021/08/16 02:26:46;;;;;;;7.03;4.68;;;;;;;21.81;nan;99954.75;5013533;28;20052;-76
2021/08/16 02:29:13;;;;;;;7.82;5.10;;;;;;;21.80;nan;99945.03;5026072;28;20081;-76
2021/08/16 02:31:38;;;;;;;8.80;5.38;;;;;;;21.80;nan;99950.41;5027966;28;20091;-75
2021/08/16 02:34:03;;;;;;;9.80;6.47;;;;;;;21.78;nan;99947.13;5020259;28;20112;-76
2021/08/16 02:36:29;;;;;;;8.13;5.20;;;;;;;21.62;nan;99956.00;5028092;28;20392;-76
2021/08/16 02:38:54;;;;;;;9.82;5.90;;;;;;;21.49;nan;99962.44;5028068;28;20041;-76
2021/08/16 02:41:20;;;;;;;8.63;5.93;;;;;;;21.55;nan;99963.38;5000587;28;20038;-76
2021/08/16 02:43:45;;;;;;;7.47;4.90;;;;;;;21.51;nan;99973.78;5016480;28;20446;-76
2021/08/16 02:46:10;;;;;;;6.85;4.97;;;;;;;21.54;nan;99977.88;5030170;28;20034;-76
2021/08/16 02:48:35;;;;;;;8.98;4.97;;;;;;;21.59;nan;99967.22;5026450;28;20040;-76
2021/08/16 02:51:01;;;;;;;8.30;4.60;;;;;;;21.54;nan;99983.25;5028609;28;20044;-76
2021/08/16 02:53:26;;;;;;;9.48;5.53;;;;;;;21.48;nan;99982.34;5032465;28;20029;-76
2021/08/16 02:55:52;;;;;;;9.00;6.00;;;;;;;21.55;nan;99985.72;5032133;28;20541;-75
2021/08/16 02:58:17;;;;;;;8.63;5.40;;;;;;;21.55;nan;99991.09;5030641;28;20456;-75
2021/08/16 03:00:42;;;;;;;6.63;4.88;;;;;;;21.50;nan;100001.75;5025760;28;20037;-76
2021/08/16 03:03:07;;;;;;;8.18;5.28;;;;;;;21.54;nan;100004.78;5031841;28;20267;-76
2021/08/16 03:05:33;;;;;;;6.90;4.87;;;;;;;21.51;nan;100008.75;5032590;28;20026;-76
2021/08/16 03:07:58;;;;;;;7.20;5.20;;;;;;;21.44;nan;100018.00;5031562;28;20291;-75
2021/08/16 03:10:24;;;;;;;8.02;5.22;;;;;;;21.38;nan;100022.41;5029239;28;20030;-76
2021/08/16 03:12:49;;;;;;;7.82;5.07;;;;;;;21.32;nan;100020.69;5034004;28;20041;-76
2021/08/16 03:15:15;;;;;;;5.63;4.35;;;;;;;21.35;nan;100022.88;5023869;28;20053;-76
2021/08/16 03:17:41;;;;;;;7.55;5.20;;;;;;;21.33;nan;100031.22;5032461;28;20029;-76
2021/08/16 03:20:08;;;;;;;5.72;4.22;;;;;;;21.33;nan;100020.47;5035349;28;20059;-76
2021/08/16 03:22:33;;;;;;;7.07;4.60;;;;;;;21.34;nan;100034.72;5017446;28;20034;-76
2021/08/16 03:24:58;;;;;;;6.32;4.47;;;;;;;21.34;nan;100030.16;5033964;28;20048;-76
2021/08/16 03:27:24;;;;;;;5.35;3.90;;;;;;;21.35;nan;100036.34;5025309;28;20090;-76
2021/08/16 03:29:49;;;;;;;7.13;4.35;;;;;;;21.31;nan;100030.63;5022983;28;19928;-76
2021/08/16 03:32:15;;;;;;;6.93;4.13;;;;;;;21.31;nan;100033.31;5016160;28;20057;-76
2021/08/16 03:34:43;;;;;;;4.88;4.03;;;;;;;21.29;nan;100043.47;5025968;28;20179;-75
2021/08/16 03:37:08;;;;;;;6.60;4.10;;;;;;;21.24;nan;100037.16;5021754;28;20038;-76
2021/08/16 03:39:34;;;;;;;5.70;3.97;;;;;;;21.23;nan;100040.91;5034658;28;20040;-75
2021/08/16 03:41:59;;;;;;;7.60;4.28;;;;;;;21.17;nan;100056.91;5032362;28;20169;-76
2021/08/16 03:44:24;;;;;;;4.72;3.60;;;;;;;21.13;nan;100061.13;5012416;28;20033;-76
2021/08/16 03:46:50;;;;;;;5.88;3.60;;;;;;;21.14;nan;100064.63;5034367;28;20054;-75
2021/08/16 03:49:15;;;;;;;6.38;2.90;;;;;;;21.04;nan;100067.06;5009776;28;20037;-75
2021/08/16 03:51:40;;;;;;;5.00;2.83;;;;;;;21.09;nan;100069.88;5013513;28;20060;-75
2021/08/16 03:54:06;;;;;;;5.07;2.75;;;;;;;21.04;nan;100084.00;5028354;28;20082;-75
2021/08/16 03:56:32;;;;;;;5.63;2.80;;;;;;;21.00;nan;100088.25;5012693;28;20038;-75
2021/08/16 03:58:57;;;;;;;6.28;2.90;;;;;;;20.97;nan;100086.84;5030480;28;20034;-75
2021/08/16 04:01:22;;;;;;;4.77;2.70;;;;;;;20.93;nan;100088.34;5035748;28;20049;-75
2021/08/16 04:03:48;;;;;;;4.80;2.28;;;;;;;20.94;nan;100087.28;5018355;28;20140;-76
2021/08/16 04:06:13;;;;;;;4.05;2.20;;;;;;;20.91;nan;100092.31;5048018;28;20026;-75
2021/08/16 04:08:40;;;;;;;4.40;2.40;;;;;;;20.86;nan;100086.81;5020732;28;20091;-75
2021/08/16 04:11:07;;;;;;;3.70;2.35;;;;;;;20.83;nan;100095.31;5045225;28;20052;-76
2021/08/16 04:13:32;;;;;;;3.83;2.20;;;;;;;20.84;nan;100100.47;5040568;28;20050;-76
2021/08/16 04:15:58;;;;;;;4.15;2.53;;;;;;;20.81;nan;100114.38;5029415;28;20428;-75
2021/08/16 04:18:23;;;;;;;4.78;2.58;;;;;;;20.84;nan;100103.16;5032022;28;20179;-75
2021/08/16 04:20:48;;;;;;;3.22;2.22;;;;;;;20.78;nan;100106.75;5032491;28;20366;-75
2021/08/16 04:23:14;;;;;;;4.93;2.42;;;;;;;20.80;nan;100101.97;5026338;28;20083;-75
2021/08/16 04:25:39;;;;;;;4.75;2.10;;;;;;;20.83;nan;100108.75;5031588;28;20033;-76
2021/08/16 04:28:05;;;;;;;4.28;2.20;;;;;;;20.83;nan;100117.63;5021647;28;20754;-75
2021/08/16 04:30:30;;;;;;;5.32;2.30;;;;;;;20.85;nan;100118.22;5032919;28;20033;-76
2021/08/16 04:32:55;;;;;;;5.85;2.60;;;;;;;20.84;nan;100121.97;5025495;28;20041;-76
2021/08/16 04:35:21;;;;;;;4.60;2.50;;;;;;;20.82;nan;100123.25;5006532;28;20498;-75
2021/08/16 04:37:46;;;;;;;6.43;2.30;;;;;;;20.87;nan;100132.25;5028696;28;20049;-76
2021/08/16 04:40:12;;;;;;;4.38;2.53;;;;;;;20.82;nan;100131.31;5031554;28;20513;-75
2021/08/16 04:42:39;;;;;;;4.97;2.33;;;;;;;20.87;nan;100129.56;5023570;28;20108;-75
2021/08/16 04:45:06;;;;;;;4.47;2.33;;;;;;;20.83;nan;100128.38;5026505;28;20080;-76
2021/08/16 04:47:32;;;;;;;3.85;2.40;;;;;;;20.81;nan;100121.59;5028412;28;20501;-75
2021/08/16 04:49:57;;;;;;;4.13;2.28;;;;;;;20.87;nan;100128.75;5027060;28;20048;-76
2021/08/16 04:52:24;;;;;;;4.95;2.50;;;;;;;20.94;nan;100138.34;5018669;28;20545;-75
2021/08/16 04:54:50;;;;;;;5.18;2.40;;;;;;;20.97;nan;100132.53;5025164;28;20037;-76
2021/08/16 04:57:28;;;;;;;4.60;2.20;;;;;;;21.04;nan;100128.91;5023898;28;20387;-75
2021/08/16 04:59:54;;;;;;;7.10;2.72;;;;;;;21.01;nan;100130.19;5012241;28;20054;-76
2021/08/16 05:02:19;;;;;;;4.68;2.10;;;;;;;20.99;nan;100130.41;5025531;28;20069;-76
2021/08/16 05:04:46;;;;;;;4.93;2.10;;;;;;;20.97;nan;100145.13;5029765;28;20375;-76
2021/08/16 05:07:12;;;;;;;5.28;2.13;;;;;;;20.89;nan;100145.47;5025685;28;20037;-75
2021/08/16 05:09:37;;;;;;;4.43;1.90;;;;;;;20.89;nan;100143.59;5030415;28;20033;-75
2021/08/16 05:12:03;;;;;;;5.63;2.10;;;;;;;20.92;nan;100147.69;5028368;28;20560;-75
2021/08/16 05:14:28;;;;;;;3.90;2.30;;;;;;;20.95;nan;100150.75;5023075;28;20033;-76
2021/08/16 05:16:53;;;;;;;6.03;2.22;;;;;;;20.94;nan;100156.34;5020551;28;20510;-75
2021/08/16 05:19:19;;;;;;;4.45;2.20;;;;;;;20.92;nan;100161.94;5011795;28;20033;-76
2021/08/16 05:21:44;;;;;;;5.50;1.98;;;;;;;20.92;nan;100163.81;5028571;28;20142;-76
2021/08/16 05:24:09;;;;;;;4.95;2.15;;;;;;;20.86;nan;100160.19;5022109;28;20057;-75
2021/08/16 05:26:35;;;;;;;4.95;2.22;;;;;;;20.82;nan;100161.69;5006723;28;20037;-75
2021/08/16 05:29:00;;;;;;;3.92;2.08;;;;;;;20.82;nan;100159.00;5028880;28;20044;-75
2021/08/16 05:31:25;;;;;;;5.57;2.00;;;;;;;20.83;nan;100167.88;5021407;28;20034;-75
2021/08/16 05:33:51;;;;;;;6.00;2.20;;;;;;;20.79;nan;100168.31;5005401;28;20236;-76
2021/08/16 05:36:16;;;;;;;3.20;1.77;;;;;;;20.72;nan;100172.97;5025501;28;20510;-76
2021/08/16 05:38:43;;;;;;;5.45;2.00;;;;;;;20.72;nan;100174.84;5027892;28;20113;-75
2021/08/16 05:41:08;;;;;;;5.55;1.90;;;;;;;20.70;nan;100175.06;5021092;28;20046;-75
2021/08/16 05:43:34;;;;;;;3.88;2.05;;;;;;;20.75;nan;100177.06;5022801;28;20038;-75
2021/08/16 05:45:59;;;;;;;5.90;1.98;;;;;;;20.64;nan;100176.00;5025958;28;20490;-75
2021/08/16 05:48:24;;;;;;;5.55;2.25;;;;;;;20.71;nan;100182.09;5026677;28;20127;-75
2021/08/16 05:50:50;;;;;;;3.95;1.67;;;;;;;20.78;nan;100193.56;5018380;28;20042;-75
2021/08/16 05:53:15;;;;;;;5.97;2.00;;;;;;;20.82;nan;100193.13;5006839;28;20088;-76
2021/08/16 05:55:40;;;;;;;3.60;1.77;;;;;;;20.90;nan;100190.09;5005664;28;20034;-76
2021/08/16 05:58:05;;;;;;;5.60;2.05;;;;;;;21.02;nan;100187.44;5019665;28;20779;-76
2021/08/16 06:00:31;;;;;;;4.05;1.70;;;;;;;21.11;nan;100191.44;5017803;28;20033;-75
2021/08/16 06:02:56;;;;;;;5.07;1.88;;;;;;;21.14;nan;100193.69;5025790;28;20030;-75
2021/08/16 06:05:21;;;;;;;4.68;1.80;;;;;;;21.10;nan;100198.72;5025797;28;20044;-75
2021/08/16 06:07:47;;;;;;;6.28;2.13;;;;;;;21.07;nan;100190.25;5027423;28;20033;-75
2021/08/16 06:10:13;;;;;;;5.40;2.20;;;;;;;21.25;nan;100197.47;5020126;28;20397;-75
2021/08/16 06:12:38;;;;;;;5.88;2.08;;;;;;;21.08;nan;100197.31;5019234;28;20080;-75
2021/08/16 06:15:04;;;;;;;4.90;1.95;;;;;;;21.09;nan;100188.16;5020204;28;20494;-75
2021/08/16 06:17:30;;;;;;;5.57;1.88;;;;;;;21.06;nan;100194.81;5025485;28;20029;-76
2021/08/16 06:19:56;;;;;;;5.05;1.90;;;;;;;20.96;nan;100202.63;5025784;28;20029;-76
2021/08/16 06:22:21;;;;;;;4.55;2.03;;;;;;;20.78;nan;100195.41;5007244;28;20037;-75
2021/08/16 06:24:46;;;;;;;5.88;1.80;;;;;;;20.75;nan;100203.94;5028094;28;20037;-75
2021/08/16 06:27:12;;;;;;;6.05;2.10;;;;;;;20.84;nan;100204.47;5024530;28;20130;-76
2021/08/16 06:29:37;;;;;;;4.78;1.88;;;;;;;20.91;nan;100211.38;5028066;28;20033;-75
2021/08/16 06:32:03;;;;;;;6.00;1.95;;;;;;;21.10;nan;100208.66;4996294;28;20038;-76
2021/08/16 06:34:28;;;;;;;4.45;1.90;;;;;;;21.19;nan;100215.34;5026220;28;20041;-75
2021/08/16 06:36:55;;;;;;;5.22;1.92;;;;;;;21.49;nan;100209.13;5018591;28;20273;-75
2021/08/16 06:39:23;;;;;;;3.90;2.00;;;;;;;21.59;nan;100215.56;5026501;28;20425;-75
2021/08/16 06:41:52;;;;;;;6.43;2.15;;;;;;;21.71;nan;100226.34;5023433;28;20196;-75
2021/08/16 06:44:18;;;;;;;3.22;1.70;;;;;;;21.83;nan;100223.66;5024098;28;20057;-75
2021/08/16 06:46:46;;;;;;;5.72;2.00;;;;;;;21.99;nan;100219.44;5028747;28;20029;-75
2021/08/16 06:49:11;;;;;;;4.63;1.80;;;;;;;22.06;nan;100225.53;5022403;28;20034;-75
2021/08/16 06:51:36;;;;;;;4.57;1.80;;;;;;;22.18;nan;100220.94;5027984;28;20033;-76
2021/08/16 06:54:02;;;;;;;3.50;1.88;;;;;;;22.22;nan;100211.38;5018094;28;20049;-75
2021/08/16 06:56:27;;;;;;;4.35;1.90;;;;;;;22.27;nan;100218.75;5004005;28;20401;-76
2021/08/16 06:58:52;;;;;;;5.90;2.00;;;;;;;22.12;nan;100227.28;5024117;28;20033;-75
2021/08/16 07:01:22;;;;;;;5.07;1.95;;;;;;;21.98;nan;100220.50;5022483;28;20034;-75
2021/08/16 07:03:48;;;;;;;3.78;1.70;;;;;;;21.84;nan;100223.44;5018625;28;20049;-76
2021/08/16 07:06:14;;;;;;;6.40;2.00;;;;;;;21.73;nan;100226.09;5017769;28;20034;-75
2021/08/16 07:08:40;;;;;;;4.63;1.80;;;;;;;21.65;nan;100221.91;5009133;28;20030;-75
2021/08/16 07:11:06;;;;;;;4.55;1.77;;;;;;;22.08;nan;100234.19;5021273;28;20040;-76
2021/08/16 07:13:31;;;;;;;5.78;2.00;;;;;;;22.86;nan;100229.41;5025970;28;20584;-75
2021/08/16 07:15:57;;;;;;;4.43;1.70;;;;;;;23.35;nan;100231.66;5028896;28;20285;-75
2021/08/16 07:18:22;;;;;;;4.13;1.98;;;;;;;23.37;nan;100224.94;5027731;28;20666;-75
2021/08/16 07:20:47;;;;;;;5.63;1.58;;;;;;;23.39;nan;100233.63;5011223;28;20202;-75
2021/08/16 07:23:13;;;;;;;3.70;1.73;;;;;;;23.22;nan;100225.50;5024814;28;20075;-75
2021/08/16 07:25:38;;;;;;;4.72;1.92;;;;;;;23.09;nan;100234.69;5021179;28;20033;-76
2021/08/16 07:28:04;;;;;;;4.25;1.70;;;;;;;23.05;nan;100230.88;5027569;28;20244;-76
2021/08/16 07:30:29;;;;;;;5.70;1.95;;;;;;;23.08;nan;100241.16;5027711;28;20163;-76
2021/08/16 07:32:54;;;;;;;3.65;1.70;;;;;;;23.05;nan;100244.34;5025679;28;20103;-75
2021/08/16 07:35:21;;;;;;;4.82;1.70;;;;;;;22.96;nan;100248.47;5032542;28;20045;-75
2021/08/16 07:37:47;;;;;;;6.20;1.80;;;;;;;22.79;nan;100244.88;5031670;28;20045;-75
2021/08/16 07:40:12;;;;;;;7.20;2.15;;;;;;;22.39;nan;100251.06;5024389;28;20038;-76
2021/08/16 07:42:39;;;;;;;4.07;1.70;;;;;;;22.34;nan;100257.16;5031438;28;20043;-75
2021/08/16 07:45:06;;;;;;;6.15;2.13;;;;;;;22.24;nan;100256.94;5027534;28;20389;-75
2021/08/16 07:47:31;;;;;;;3.13;1.50;;;;;;;22.31;nan;100262.19;5031401;28;20029;-76
2021/08/16 07:49:59;;;;;;;4.43;1.80;;;;;;;22.32;nan;100258.47;5014779;28;20068;-75
2021/08/16 07:52:24;;;;;;;5.05;1.65;;;;;;;22.41;nan;100248.97;5031333;28;20111;-75
2021/08/16 07:54:53;;;;;;;5.38;1.67;;;;;;;22.41;nan;100249.78;5025070;28;20498;-76
2021/08/16 07:57:19;;;;;;;4.68;1.70;;;;;;;22.56;nan;100253.84;5006881;28;20065;-75
2021/08/16 07:59:44;;;;;;;3.87;1.60;;;;;;;22.56;nan;100254.66;5012128;28;20052;-76
2021/08/16 08:02:09;;;;;;;5.53;1.85;;;;;;;22.74;nan;100247.47;5013589;28;20311;-76
2021/08/16 08:04:35;;;;;;;3.88;1.48;;;;;;;22.52;nan;100253.50;5013111;28;20112;-75
2021/08/16 08:07:01;;;;;;;11.90;2.00;;;;;;;22.65;nan;100255.13;5031779;28;20267;-75
2021/08/16 08:09:26;;;;;;;5.40;1.70;;;;;;;22.66;nan;100251.34;5020859;28;20038;-76
2021/08/16 08:11:52;;;;;;;6.13;1.77;;;;;;;22.68;nan;100255.44;5011880;28;20084;-75
2021/08/16 08:14:17;;;;;;;5.60;1.70;;;;;;;22.76;nan;100250.75;5021946;28;20064;-76
2021/08/16 08:16:42;;;;;;;5.00;1.77;;;;;;;22.89;nan;100253.16;5028548;28;20406;-76
2021/08/16 08:19:08;;;;;;;6.88;1.70;;;;;;;22.91;nan;100251.06;5009506;28;20083;-75
2021/08/16 08:21:33;;;;;;;4.57;1.90;;;;;;;23.21;nan;100258.91;5020288;28;20105;-75
2021/08/16 08:23:58;;;;;;;5.32;1.80;;;;;;;23.12;nan;100260.41;5027328;28;20385;-76
2021/08/16 08:26:24;;;;;;;5.85;1.98;;;;;;;23.15;nan;100251.81;5018418;28;20032;-76
2021/08/16 08:28:49;;;;;;;5.30;1.63;;;;;;;23.28;nan;100251.50;5025133;28;20045;-76
2021/08/16 08:31:14;;;;;;;5.35;1.90;;;;;;;23.43;nan;100259.06;5030950;28;20315;-75
2021/08/16 08:33:40;;;;;;;4.60;1.63;;;;;;;23.14;nan;100252.03;5011326;28;20061;-76
2021/08/16 08:36:05;;;;;;;3.30;1.60;;;;;;;23.25;nan;100252.00;5029237;28;20068;-75
2021/08/16 08:38:30;;;;;;;3.92;1.55;;;;;;;23.45;nan;100256.91;5013095;28;20101;-75
2021/08/16 08:40:58;;;;;;;3.70;1.90;;;;;;;23.67;nan;100253.53;5030501;28;20412;-75
2021/08/16 08:43:24;;;;;;;3.83;1.80;;;;;;;23.70;nan;100251.13;5030133;28;20049;-75
2021/08/16 08:45:53;;;;;;;4.65;1.60;;;;;;;23.46;nan;100255.88;5003763;28;20469;-75
2021/08/16 08:48:18;;;;;;;3.50;1.70;;;;;;;23.75;nan;100253.13;5005831;28;20405;-75
2021/08/16 08:50:46;;;;;;;6.57;1.95;;;;;;;24.09;nan;100248.50;5024201;28;20116;-75
2021/08/16 08:53:11;;;;;;;4.15;1.60;;;;;;;24.01;nan;100253.53;5013740;28;20501;-75
2021/08/16 08:55:36;;;;;;;6.00;1.60;;;;;;;24.00;nan;100259.97;5030461;28;20121;-76
2021/08/16 08:58:02;;;;;;;5.05;2.08;;;;;;;24.00;nan;100249.19;5017143;28;20099;-75
2021/08/16 09:00:27;;;;;;;4.47;1.77;;;;;;;23.80;nan;100255.09;5012284;28;20049;-75
2021/08/16 09:02:56;;;;;;;4.85;1.70;;;;;;;23.82;nan;100251.09;5030145;28;20034;-75
2021/08/16 09:05:21;;;;;;;4.47;2.58;;;;;;;23.64;nan;100241.31;5022099;28;20585;-75
2021/08/16 09:07:47;;;;;;;5.20;2.30;;;;;;;23.51;nan;100252.44;5026492;28;20124;-75
2021/08/16 09:10:14;;;;;;;4.45;1.77;;;;;;;23.51;nan;100253.25;5030062;28;20487;-75
2021/08/16 09:12:41;;;;;;;3.88;2.10;;;;;;;23.62;nan;100253.41;5005532;28;20080;-75
2021/08/16 09:15:15;;;;;;;4.10;1.52;;;;;;;23.52;nan;100249.47;5018998;28;20394;-75
2021/08/16 09:17:41;;;;;;;5.75;2.30;;;;;;;23.45;nan;100256.09;5030608;28;20321;-75
2021/08/16 09:20:36;;;;;;;4.97;1.60;;;;;;;23.37;nan;100248.41;5029636;28;20137;-75
2021/08/16 09:23:07;;;;;;;3.95;1.50;;;;;;;23.39;nan;100249.00;5016812;28;20042;-75
2021/08/16 09:25:38;;;;;;;5.30;1.90;;;;;;;23.40;nan;100254.13;5015180;28;20103;-75
2021/08/16 09:28:07;;;;;;;;;;;;;;;23.25;nan;100246.59;5030478;28;20052;-76
2021/08/16 09:30:40;;;;;;;6.03;1.55;;;;;;;23.28;nan;100243.41;5012277;28;19927;-75
2021/08/16 09:33:15;;;;;;;4.38;1.60;;;;;;;23.40;nan;100251.44;5024931;28;20041;-75
2021/08/16 09:35:54;;;;;;;2.58;1.52;;;;;;;23.47;nan;100249.41;5027467;28;20029;-75
2021/08/16 09:38:40;;;;;;;3.55;1.60;;;;;;;23.42;nan;100254.72;5022654;28;20044;-76
2021/08/16 09:41:22;;;;;;;3.97;1.60;;;;;;;23.23;nan;100243.31;5011575;28;20410;-75
2021/08/16 09:43:48;;;;;;;3.45;1.40;;;;;;;23.12;nan;100241.50;5021509;28;20042;-75
2021/08/16 09:46:15;;;;;;;3.95;1.80;;;;;;;23.06;nan;100234.38;5015230;28;20646;-76
2021/08/16 09:48:42;;;;;;;4.72;1.75;;;;;;;22.97;nan;100244.69;5020241;28;20034;-75
2021/08/16 09:51:07;;;;;;;3.75;1.40;;;;;;;23.14;nan;100235.84;5009171;28;20033;-75
2021/08/16 09:53:33;;;;;;;4.80;1.50;;;;;;;22.85;nan;100233.94;5018988;28;20531;-75
2021/08/16 09:56:02;;;;;;;4.15;1.67;;;;;;;22.99;nan;100233.69;5017468;28;20041;-75
2021/08/16 09:58:29;;;;;;;5.88;1.63;;;;;;;23.15;nan;100235.63;5028112;28;20317;-75
2021/08/16 10:00:55;;;;;;;5.55;1.85;;;;;;;23.28;nan;100245.28;5028016;28;20025;-75
2021/08/16 10:03:20;;;;;;;2.70;1.23;;;;;;;23.35;nan;100237.84;5021821;28;20417;-75
2021/08/16 10:05:47;;;;;;;3.92;1.40;;;;;;;23.41;nan;100241.47;5036002;28;20044;-75
2021/08/16 10:08:35;;;;;;;4.75;1.70;;;;;;;23.36;nan;100236.81;5010238;28;20038;-75
2021/08/16 10:11:00;;;;;;;3.00;1.27;;;;;;;23.71;nan;100244.66;5001535;28;20072;-75
2021/08/16 10:13:27;;;;;;;3.67;1.60;;;;;;;23.88;nan;100231.22;5028836;28;20053;-75
2021/08/16 10:16:00;;;;;;;4.22;1.55;;;;;;;24.10;nan;100235.84;5020481;28;20465;-75
2021/08/16 10:18:33;;;;;;;5.38;1.90;;;;;;;24.43;nan;100234.94;5015467;28;20116;-75
2021/08/16 10:21:00;;;;;;;4.40;1.50;;;;;;;24.68;nan;100230.94;5026327;28;20579;-76
2021/08/16 10:23:27;;;;;;;2.78;1.20;;;;;;;24.51;nan;100231.00;5026053;28;20040;-75
2021/08/16 10:25:54;;;;;;;4.60;1.67;;;;;;;24.25;nan;100232.53;5027857;28;20033;-75
2021/08/16 10:28:27;;;;;;;4.22;1.70;;;;;;;24.01;nan;100234.63;5023417;28;20041;-75
2021/08/16 10:30:54;;;;;;;3.50;1.58;;;;;;;24.12;nan;100242.63;5024640;28;20112;-75
2021/08/16 10:33:20;;;;;;;3.13;1.30;;;;;;;24.16;nan;100240.25;5025907;28;20398;-75
2021/08/16 10:35:46;;;;;;;4.03;1.50;;;;;;;24.16;nan;100237.53;5029347;28;20116;-76
2021/08/16 10:38:15;;;;;;;3.95;1.60;;;;;;;24.45;nan;100224.66;5026416;28;20628;-76
2021/08/16 10:40:43;;;;;;;4.22;1.73;;;;;;;24.48;nan;100234.19;5027092;28;20040;-75
2021/08/16 10:43:10;;;;;;;3.40;1.70;;;;;;;24.49;nan;100222.34;5023880;28;20125;-75
2021/08/16 10:45:43;;;;;;;7.55;2.40;;;;;;;24.40;nan;100230.03;5015337;28;20129;-75
2021/08/16 10:48:08;;;;;;;3.90;1.85;;;;;;;24.08;nan;100219.88;5006161;28;20410;-75
2021/08/16 10:50:36;;;;;;;3.67;1.52;;;;;;;24.18;nan;100216.50;5016441;28;20049;-75
2021/08/16 10:53:07;;;;;;;5.80;1.88;;;;;;;24.48;nan;100207.16;5020733;28;20072;-76
2021/08/16 10:55:36;;;;;;;4.28;1.67;;;;;;;24.78;nan;100210.22;5026199;28;20506;-76
2021/08/16 10:58:02;;;;;;;4.25;2.35;;;;;;;25.00;nan;100202.09;5028509;28;20073;-75
2021/08/16 11:00:27;;;;;;;6.38;2.08;;;;;;;25.23;nan;100210.19;5025340;28;20094;-75
2021/08/16 11:02:56;;;;;;;4.65;1.73;;;;;;;25.67;nan;100200.00;5029052;28;20064;-75
2021/08/16 11:05:30;;;;;;;5.97;2.40;;;;;;;25.88;nan;100211.78;5004299;28;20228;-74
2021/08/16 11:07:57;;;;;;;5.60;2.70;;;;;;;25.87;nan;100210.16;5029910;28;20441;-76
2021/08/16 11:10:23;;;;;;;5.80;2.70;;;;;;;26.14;nan;100207.34;5023752;28;20522;-75
2021/08/16 11:12:48;;;;;;;4.93;1.92;;;;;;;26.47;nan;100206.13;5024736;28;20030;-75
2021/08/16 11:15:17;;;;;;;3.67;1.60;;;;;;;26.34;nan;100206.63;5026033;28;20038;-75
2021/08/16 11:17:42;;;;;;;5.50;2.22;;;;;;;26.10;nan;100200.00;5001790;28;20033;-75
2021/08/16 11:20:16;;;;;;;3.50;1.60;;;;;;;26.01;nan;100203.22;5039725;28;20305;-75
2021/08/16 11:22:52;;;;;;;3.63;1.77;;;;;;;25.64;nan;100203.19;5012979;28;20033;-76
2021/08/16 11:25:17;;;;;;;5.32;2.60;;;;;;;25.43;nan;100200.34;5015265;28;20053;-75
2021/08/16 11:27:43;;;;;;;3.67;1.83;;;;;;;24.95;nan;100202.03;5014867;28;20030;-75
2021/08/16 11:30:10;;;;;;;3.22;1.50;;;;;;;24.96;nan;100203.66;5011564;28;20065;-75
2021/08/16 11:32:38;;;;;;;3.95;1.60;;;;;;;24.61;nan;100201.38;5023064;28;20041;-75
2021/08/16 11:35:05;;;;;;;4.57;1.90;;;;;;;24.29;nan;100212.06;5006958;28;20041;-75
2021/08/16 11:37:33;;;;;;;3.05;1.52;;;;;;;24.14;nan;100202.66;5011530;28;20410;-75
2021/08/16 11:39:59;;;;;;;5.60;1.67;;;;;;;24.28;nan;100207.69;5005163;28;20124;-76